KPWK/PWK METAR and TAF weather

Enter ICAO airport designator
Station Type Date Time Source
KPWK METAR 2021/05/15 22:52 UTC NOAA

KPWK 152252Z 17009KT 10SM OVC050 17/07 A3016 RMK AO2 SLP214 T01670067


Station Type Date Time Source
KPWK Decoded METAR 2021/05/15 22:52 UTC NOAA

CHICAGO EXECUTIVE AIRPORT, IL, United States (KPWK) 42-07N 087-54W 203M
May 15, 2021 - 06:52 PM EDT / 2021.05.15 2252 UTC
Wind: from the S (170 degrees) at 10 MPH (9 KT):0
Visibility: 10 mile(s):0
Sky conditions: overcast
Temperature: 62.1 F (16.7 C)
Dew Point: 44.1 F (6.7 C)
Relative Humidity: 51%
Pressure (altimeter): 30.16 in. Hg (1021 hPa)
ob: KPWK 152252Z 17009KT 10SM OVC050 17/07 A3016 RMK AO2 SLP214 T01670067
cycle: 23

Station Type Date Time Source
KPWK TAF UTC NOAA

Error!

Example: see airport list